Time;durP1;ratioP1;P1;durP2;ratioP2;P2;SDS_P1;SDS_P2;PMS_P1;PMS_P2;Temp;Humidity;BMP_temperature;BMP_pressure;BME280_temperature;BME280_humidity;BME280_pressure;Samples;Min_cycle;Max_cycle;Signal;HPM_P1;HPM_P2
2021/11/30 00:02:12;;;;;;;6.25;1.23;;;4.30;99.90;;;;;;6020004;23;20017;-81
2021/11/30 00:04:44;;;;;;;7.82;1.35;;;4.40;99.90;;;;;;6074594;23;20024;-81
2021/11/30 00:07:51;;;;;;;5.78;1.30;;;4.40;99.90;;;;;;6076304;23;20021;-82
2021/11/30 00:11:00;;;;;;;;;;;;;;;;;;;;;
2021/11/30 01:06:26;;;;;;;9.35;1.80;;;4.60;99.90;;;;;;6251585;22;20107;-82
2021/11/30 01:09:15;;;;;;;;;;;;;;;;;;;;;
2021/11/30 01:12:53;;;;;;;10.30;1.85;;;3.90;99.90;;;;;;6249698;23;20016;-82
2021/11/30 01:15:37;;;;;;;9.30;2.15;;;3.50;99.90;;;;;;6109752;23;20021;-83
2021/11/30 01:18:56;;;;;;;6.65;1.67;;;3.90;99.90;;;;;;6110143;23;20100;-82
2021/11/30 01:21:51;;;;;;;10.77;1.92;;;3.60;99.90;;;;;;6136089;23;20096;-83
2021/11/30 01:24:51;;;;;;;7.30;1.60;;;3.50;99.90;;;;;;6109221;23;20501;-81
2021/11/30 01:28:44;;;;;;;;;;;;;;;;;;;;;
2021/11/30 01:35:57;;;;;;;11.10;2.30;;;3.50;99.90;;;;;;6047095;23;20428;-81
2021/11/30 01:39:20;;;;;;;;;;;;;;;;;;;;;
2021/11/30 01:51:17;;;;;;;5.07;2.15;;;4.20;99.90;;;;;;5915997;23;20070;-81
2021/11/30 01:53:42;;;;;;;10.63;2.30;;;4.90;99.90;;;;;;5884244;24;20013;-80
2021/11/30 01:56:30;;;;;;;6.50;1.77;;;4.10;99.90;;;;;;5885485;24;20096;-81
2021/11/30 02:06:32;;;;;;;9.13;2.30;;;4.30;99.90;;;;;;5898119;24;20045;-82
2021/11/30 02:09:04;;;;;;;11.50;2.67;;;3.70;99.90;;;;;;5871901;24;20493;-80
2021/11/30 02:12:12;;;;;;;10.70;2.97;;;4.80;99.90;;;;;;5897376;24;20438;-81
2021/11/30 02:15:26;;;;;;;10.27;3.10;;;4.30;99.90;;;;;;5973269;23;20020;-81
2021/11/30 02:18:07;;;;;;;7.53;2.90;;;4.30;99.90;;;;;;5998185;23;20055;-82
2021/11/30 02:20:55;;;;;;;;;;;;;;;;;;;;;
2021/11/30 02:24:13;;;;;;;;;;;;;;;;;;;;;
2021/11/30 02:26:30;;;;;;;7.88;3.97;;;4.40;99.90;;;;;;6037273;23;20025;-82
2021/11/30 02:29:11;;;;;;;11.05;4.57;;;3.90;99.90;;;;;;6038992;23;20030;-82
2021/11/30 02:32:28;;;;;;;9.07;3.92;;;4.80;99.90;;;;;;5978599;24;20030;-82
2021/11/30 02:35:39;;;;;;;9.18;4.47;;;4.30;99.90;;;;;;6039348;23;20066;-81
2021/11/30 02:38:59;;;;;;;8.90;4.15;;;4.60;99.90;;;;;;6130662;23;20358;-82
2021/11/30 02:42:17;;;;;;;10.15;4.75;;;4.10;99.90;;;;;;6217390;22;20085;-81
2021/11/30 02:45:31;;;;;;;8.15;4.55;;;4.80;99.90;;;;;;6246700;22;20115;-81
2021/11/30 02:48:54;;;;;;;;;;;;;;;;;;;;;
2021/11/30 02:52:16;;;;;;;12.60;4.65;;;4.60;99.90;;;;;;6212076;23;20063;-81
2021/11/30 02:55:01;;;;;;;7.82;4.63;;;5.00;99.90;;;;;;6090525;23;20015;-82
2021/11/30 03:01:26;;;;;;;6.65;4.25;;;5.00;99.90;;;;;;5978194;24;20024;-83
2021/11/30 03:04:23;;;;;;;6.82;3.85;;;5.40;99.90;;;;;;5977244;24;20032;-82
2021/11/30 03:07:38;;;;;;;6.07;3.42;;;5.10;99.90;;;;;;5954312;24;20111;-82
2021/11/30 03:10:37;;;;;;;;;;;;;;;;;;;;;
2021/11/30 03:13:42;;;;;;;6.47;3.88;;;6.00;99.90;;;;;;5953319;24;20016;-82
2021/11/30 03:16:35;;;;;;;5.97;4.10;;;5.30;99.90;;;;;;5955209;24;20458;-82
2021/11/30 03:22:17;;;;;;;5.32;4.30;;;5.60;99.90;;;;;;5954382;24;20161;-80
2021/11/30 03:24:46;;;;;;;4.38;3.83;;;5.50;99.90;;;;;;5956615;23;20016;-81
2021/11/30 03:27:12;;;;;;;5.47;4.93;;;5.00;99.90;;;;;;5982714;23;20012;-80
2021/11/30 03:29:42;;;;;;;7.40;4.65;;;6.60;99.90;;;;;;6061768;23;20022;-82
2021/11/30 03:35:26;;;;;;;5.30;4.70;;;5.90;99.90;;;;;;6155823;23;20013;-81
2021/11/30 03:38:26;;;;;;;;;;;5.70;99.90;;;;;;6171795;22;20121;-82
2021/11/30 03:41:40;;;;;;;6.20;4.30;;;5.70;99.90;;;;;;6222577;22;19961;-82
2021/11/30 04:03:38;;;;;;;7.07;5.88;;;6.10;99.90;;;;;;6272993;22;20026;-83
2021/11/30 04:06:47;;;;;;;11.52;6.18;;;6.40;99.90;;;;;;6191966;23;20016;-83
2021/11/30 04:10:26;;;;;;;8.38;6.55;;;6.30;99.90;;;;;;6220156;23;20085;-82
2021/11/30 04:43:45;;;;;;;17.83;2.53;;;7.20;99.90;;;;;;5817452;24;20018;-84
2021/11/30 04:46:24;;;;;;;14.30;2.03;;;7.60;99.90;;;;;;5817310;24;20090;-83
2021/11/30 04:53:50;;;;;;;21.75;2.45;;;7.10;99.90;;;;;;5781818;24;20035;-83
2021/11/30 05:19:42;;;;;;;23.00;2.20;;;7.20;99.90;;;;;;5364690;23;18879376;-82
2021/11/30 05:23:06;;;;;;;25.92;2.72;;;7.60;99.90;;;;;;6128751;23;20476;-82
2021/11/30 05:26:43;;;;;;;;;;;7.30;99.90;;;;;;5929831;24;20021;-83
2021/11/30 05:33:47;;;;;;;21.80;2.30;;;7.70;99.90;;;;;;5930238;24;20032;-82
2021/11/30 05:36:45;;;;;;;22.15;1.80;;;7.40;99.90;;;;;;5929574;24;20097;-82
2021/11/30 05:39:49;;;;;;;36.30;2.30;;;7.90;99.90;;;;;;5929318;23;20357;-82
2021/11/30 05:42:55;;;;;;;21.85;1.90;;;8.00;99.90;;;;;;5909930;24;20572;-83
2021/11/30 05:45:36;;;;;;;21.98;2.28;;;8.60;99.90;;;;;;5802386;24;20060;-82
2021/11/30 05:52:18;;;;;;;20.75;2.63;;;7.90;99.90;;;;;;5806858;24;20046;-82
2021/11/30 06:06:15;;;;;;;30.65;3.25;;;7.90;99.90;;;;;;5717776;25;20186;-82
2021/11/30 06:09:38;;;;;;;;;;;;;;;;;;;;;
2021/11/30 06:13:04;;;;;;;26.40;3.05;;;7.40;99.90;;;;;;5763450;24;20058;-82
2021/11/30 06:15:38;;;;;;;27.13;2.95;;;8.00;99.90;;;;;;5767260;24;20131;-82
2021/11/30 06:18:14;;;;;;;23.40;3.00;;;7.60;99.90;;;;;;5784298;24;20539;-82
2021/11/30 06:20:51;;;;;;;14.13;1.98;;;7.00;99.90;;;;;;5815689;24;20054;-81
2021/11/30 06:23:25;;;;;;;25.92;2.70;;;8.10;99.90;;;;;;5799881;24;20368;-82
2021/11/30 06:30:12;;;;;;;;;;;;;;;;;;;;;
2021/11/30 06:36:48;;;;;;;28.13;3.10;;;8.10;99.90;;;;;;5788857;24;20106;-86
2021/11/30 06:43:33;;;;;;;34.13;3.75;;;8.20;99.90;;;;;;5764424;24;20035;-82
2021/11/30 06:46:08;;;;;;;31.57;4.17;;;8.00;99.90;;;;;;5788942;24;20418;-81
2021/11/30 06:48:44;;;;;;;33.13;3.33;;;8.30;99.90;;;;;;5808954;24;20165;-81
2021/11/30 06:51:15;;;;;;;21.63;2.65;;;8.00;99.90;;;;;;5792245;24;20421;-83
2021/11/30 06:53:40;;;;;;;29.83;3.58;;;8.70;99.90;;;;;;5814670;24;20460;-80
2021/11/30 06:56:12;;;;;;;27.98;2.63;;;8.00;99.90;;;;;;5815097;24;20019;-84
2021/11/30 06:58:43;;;;;;;29.15;2.70;;;8.00;99.90;;;;;;5796099;24;20015;-87
2021/11/30 07:01:10;;;;;;;20.88;2.47;;;8.60;99.90;;;;;;5814961;24;20053;-80
2021/11/30 07:03:46;;;;;;;25.10;2.88;;;8.10;99.90;;;;;;5815352;24;20031;-81
2021/11/30 07:14:20;;;;;;;21.88;2.85;;;8.00;99.90;;;;;;6086911;23;20083;-82
2021/11/30 07:16:47;;;;;;;22.63;2.83;;;8.00;99.90;;;;;;6100087;23;20014;-81
2021/11/30 07:19:13;;;;;;;23.67;3.00;;;8.40;99.90;;;;;;6124311;23;20014;-81
2021/11/30 07:21:41;;;;;;;17.70;2.88;;;8.00;99.90;;;;;;6125098;23;20057;-82
2021/11/30 07:24:07;;;;;;;16.63;1.70;;;7.90;99.90;;;;;;6100873;23;20048;-81
2021/11/30 07:27:14;;;;;;;12.85;1.73;;;8.30;99.90;;;;;;6096732;23;20009;-82
2021/11/30 07:37:11;;;;;;;10.18;1.23;;;7.60;99.90;;;;;;6039041;23;20026;-82
2021/11/30 07:47:15;;;;;;;14.32;2.13;;;7.20;99.90;;;;;;5950388;24;20027;-80
2021/11/30 07:49:52;;;;;;;17.85;2.60;;;8.50;99.90;;;;;;5927818;24;20020;-82
2021/11/30 07:52:18;;;;;;;30.48;3.33;;;7.80;99.90;;;;;;5903379;24;20442;-82
2021/11/30 07:54:45;;;;;;;19.17;2.65;;;7.60;99.90;;;;;;5925896;24;20020;-79
2021/11/30 07:57:12;;;;;;;21.40;2.88;;;7.70;99.90;;;;;;5926834;24;20434;-81
2021/11/30 07:59:42;;;;;;;22.75;2.55;;;7.90;99.90;;;;;;5926795;24;20155;-83
2021/11/30 08:02:08;;;;;;;22.80;2.45;;;8.30;99.90;;;;;;5926789;24;20017;-83
2021/11/30 08:04:34;;;;;;;14.45;2.22;;;8.30;99.90;;;;;;5927022;23;20028;-83
2021/11/30 08:07:05;;;;;;;26.33;2.17;;;7.80;99.90;;;;;;5926163;24;20330;-82
2021/11/30 08:10:25;;;;;;;19.80;2.20;;;7.80;99.90;;;;;;5926747;24;20016;-84
2021/11/30 08:25:28;;;;;;;22.52;2.80;;;7.80;99.90;;;;;;5788022;24;20106;-83
2021/11/30 08:28:12;;;;;;;21.77;1.95;;;7.80;99.90;;;;;;5754164;24;20016;-83
2021/11/30 08:35:46;;;;;;;14.75;1.90;;;7.30;99.90;;;;;;5739613;24;20027;-86
2021/11/30 08:38:16;;;;;;;13.48;1.77;;;7.80;99.90;;;;;;5618049;25;20092;-84
2021/11/30 08:40:42;;;;;;;15.32;1.67;;;7.90;99.90;;;;;;5619493;25;20036;-81
2021/11/30 08:43:08;;;;;;;17.52;1.40;;;8.70;99.90;;;;;;5639166;25;20014;-81
2021/11/30 08:45:34;;;;;;;16.48;1.77;;;7.90;99.90;;;;;;5640515;25;20056;-82
2021/11/30 08:47:59;;;;;;;13.90;1.50;;;7.90;99.90;;;;;;5640070;25;20025;-79
2021/11/30 08:50:31;;;;;;;18.23;2.33;;;8.70;99.90;;;;;;5688124;25;20036;-82
2021/11/30 08:52:57;;;;;;;67.07;2.47;;;8.30;99.90;;;;;;5687641;25;20017;-82
2021/11/30 08:55:24;;;;;;;21.55;2.50;;;8.10;99.90;;;;;;5689554;25;20074;-82
2021/11/30 08:57:49;;;;;;;14.18;1.75;;;8.00;99.90;;;;;;5710295;25;20091;-82
2021/11/30 09:00:20;;;;;;;14.02;2.65;;;8.00;99.90;;;;;;5740969;24;20406;-82
2021/11/30 09:02:46;;;;;;;14.93;2.42;;;8.00;99.90;;;;;;5899181;24;20074;-81
2021/11/30 09:05:15;;;;;;;11.68;1.60;;;8.00;99.90;;;;;;5900801;24;20021;-81
2021/11/30 09:07:41;;;;;;;14.50;2.20;;;8.10;99.90;;;;;;5898925;24;20058;-81
2021/11/30 09:10:07;;;;;;;21.00;2.40;;;8.00;99.90;;;;;;5925609;24;20027;-81
2021/11/30 09:12:34;;;;;;;15.18;2.17;;;8.00;99.90;;;;;;5954998;24;20087;-81
2021/11/30 09:15:00;;;;;;;17.15;2.35;;;8.00;99.90;;;;;;6090921;23;20092;-82
2021/11/30 09:17:25;;;;;;;22.58;2.50;;;7.90;99.90;;;;;;6155828;23;20340;-82
2021/11/30 09:19:51;;;;;;;19.77;2.13;;;7.90;99.90;;;;;;6167231;23;20044;-82
2021/11/30 09:22:17;;;;;;;15.63;2.45;;;7.90;99.90;;;;;;6185683;23;20028;-81
2021/11/30 09:24:43;;;;;;;11.45;1.58;;;7.90;99.90;;;;;;6186022;23;20440;-81
2021/11/30 09:27:09;;;;;;;14.75;1.95;;;8.50;99.90;;;;;;6186223;23;20102;-81
2021/11/30 09:29:35;;;;;;;24.30;2.53;;;8.00;99.90;;;;;;6186075;23;20314;-80
2021/11/30 09:32:00;;;;;;;16.67;2.38;;;8.00;99.90;;;;;;6185459;23;20091;-78
2021/11/30 09:34:27;;;;;;;12.43;1.83;;;7.90;99.90;;;;;;6186223;23;20016;-79
2021/11/30 09:36:54;;;;;;;24.83;2.67;;;8.40;99.90;;;;;;6160309;23;20013;-79
2021/11/30 09:39:21;;;;;;;20.20;2.38;;;8.30;99.90;;;;;;6160277;23;20318;-78
2021/11/30 09:41:47;;;;;;;21.92;2.40;;;8.30;99.90;;;;;;6161346;23;20024;-78
2021/11/30 09:44:13;;;;;;;17.55;2.17;;;8.30;99.90;;;;;;6185482;23;20046;-79
2021/11/30 09:46:40;;;;;;;23.02;2.85;;;8.30;99.90;;;;;;6187174;23;20066;-80
2021/11/30 09:49:06;;;;;;;24.48;3.05;;;8.30;99.90;;;;;;6214629;23;20021;-80
2021/11/30 09:51:32;;;;;;;18.67;2.83;;;8.40;99.90;;;;;;6214842;23;20008;-81
2021/11/30 09:53:58;;;;;;;23.67;2.80;;;8.40;99.90;;;;;;6161586;23;20401;-81
2021/11/30 09:56:24;;;;;;;16.90;2.40;;;8.40;99.90;;;;;;6187034;23;20190;-79
2021/11/30 10:06:22;;;;;;;24.25;3.03;;;8.30;99.90;;;;;;6213785;23;20516;-78
2021/11/30 10:09:24;;;;;;;22.55;2.70;;;8.30;99.90;;;;;;6125643;23;20028;-79
2021/11/30 10:12:58;;;;;;;21.83;2.80;;;8.20;99.90;;;;;;6127270;23;20056;-80
2021/11/30 10:24:13;;;;;;;18.23;2.35;;;7.60;99.90;;;;;;5973414;24;20084;-80
2021/11/30 10:26:57;;;;;;;19.80;2.92;;;8.20;99.90;;;;;;5948012;24;20029;-80
2021/11/30 10:30:22;;;;;;;;;;;;;;;;;;;;;
2021/11/30 10:42:20;;;;;;;25.13;3.20;;;8.40;99.90;;;;;;5840046;24;20168;-80
2021/11/30 11:14:59;;;;;;;26.73;4.38;;;8.00;99.90;;;;;;6318160;22;20023;-83
2021/11/30 12:07:01;;;;;;;28.63;3.47;;;7.60;99.90;;;;;;6253675;22;20084;-81
2021/11/30 12:10:22;;;;;;;19.55;3.08;;;7.60;99.90;;;;;;6109784;23;20423;-81
2021/11/30 12:17:05;;;;;;;34.05;3.90;;;8.10;99.90;;;;;;6006948;23;20085;-81
2021/11/30 12:19:37;;;;;;;26.30;3.70;;;8.10;99.90;;;;;;6001921;23;20456;-81
2021/11/30 12:23:00;;;;;;;27.38;3.42;;;8.50;99.90;;;;;;5987360;23;20026;-85
2021/11/30 12:25:26;;;;;;;23.25;3.17;;;8.20;99.90;;;;;;5983937;23;20415;-85
2021/11/30 12:27:54;;;;;;;19.95;2.53;;;8.20;99.90;;;;;;5982520;23;20034;-82
2021/11/30 12:30:42;;;;;;;24.83;2.97;;;8.30;99.90;;;;;;5983413;23;20016;-79
2021/11/30 12:33:36;;;;;;;22.77;2.72;;;8.50;99.90;;;;;;5963670;23;20090;-86
2021/11/30 12:36:08;;;;;;;26.55;3.63;;;8.50;99.90;;;;;;6012545;23;20055;-83
2021/11/30 12:38:40;;;;;;;25.02;3.00;;;8.50;99.90;;;;;;6012525;23;20019;-85
2021/11/30 12:41:33;;;;;;;32.13;3.70;;;8.50;99.90;;;;;;6005900;23;20106;-84
2021/11/30 12:44:17;;;;;;;29.02;3.40;;;8.40;99.90;;;;;;6032528;23;20013;-80
2021/11/30 12:46:47;;;;;;;30.08;3.88;;;8.40;99.90;;;;;;6131748;23;20012;-83
2021/11/30 12:49:29;;;;;;;28.27;3.05;;;8.30;99.90;;;;;;6185924;23;20023;-83
2021/11/30 12:52:09;;;;;;;28.48;4.25;;;8.30;99.90;;;;;;6210933;23;20352;-85
2021/11/30 12:54:43;;;;;;;19.02;2.80;;;8.30;99.90;;;;;;6182438;23;20060;-81
2021/11/30 12:57:45;;;;;;;21.50;2.97;;;8.30;99.90;;;;;;6268104;22;20015;-84
2021/11/30 13:04:00;;;;;;;30.90;3.40;;;7.60;99.90;;;;;;6154061;23;20468;-83
2021/11/30 13:06:36;;;;;;;;;;;7.90;99.90;;;;;;6176897;23;20033;-85
2021/11/30 13:09:35;;;;;;;21.70;2.75;;;8.60;99.90;;;;;;6117340;23;20041;-82
2021/11/30 13:12:02;;;;;;;21.70;3.53;;;8.20;99.90;;;;;;6094433;23;20018;-78
2021/11/30 13:14:33;;;;;;;22.58;2.90;;;8.20;99.90;;;;;;6070688;23;20493;-80
2021/11/30 13:17:02;;;;;;;16.57;2.60;;;8.10;99.90;;;;;;6095064;23;20100;-79
2021/11/30 13:19:33;;;;;;;20.80;2.63;;;8.10;99.90;;;;;;6071702;23;20249;-80
2021/11/30 13:22:04;;;;;;;16.67;2.58;;;8.00;99.90;;;;;;6071919;23;20018;-81
2021/11/30 13:24:47;;;;;;;21.70;2.88;;;8.00;99.90;;;;;;6072129;23;20966;-79
2021/11/30 13:27:28;;;;;;;20.20;3.03;;;8.00;99.90;;;;;;6096318;23;20013;-78
2021/11/30 13:30:18;;;;;;;17.65;2.90;;;7.90;99.90;;;;;;6095696;23;20014;-77
2021/11/30 13:33:19;;;;;;;17.77;2.40;;;7.90;99.90;;;;;;6163224;23;20110;-78
2021/11/30 13:35:57;;;;;;;22.75;2.80;;;7.80;99.90;;;;;;6281264;22;20066;-80
2021/11/30 13:38:29;;;;;;;22.45;3.10;;;7.80;99.90;;;;;;6280357;22;20014;-80
2021/11/30 13:45:35;;;;;;;;;;;;;;;;;;;;;
2021/11/30 13:48:35;;;;;;;19.35;2.03;;;7.60;99.90;;;;;;6067216;23;20985;-80
2021/11/30 13:51:32;;;;;;;25.88;2.80;;;6.90;99.90;;;;;;6066098;23;20085;-81
2021/11/30 13:54:25;;;;;;;20.08;2.72;;;7.30;99.90;;;;;;6070258;23;20021;-78
2021/11/30 13:56:58;;;;;;;19.83;2.85;;;8.30;99.90;;;;;;6067034;23;20093;-77
2021/11/30 13:59:35;;;;;;;20.80;2.38;;;8.20;99.90;;;;;;6065731;23;20029;-82
2021/11/30 14:06:13;;;;;;;19.20;2.28;;;7.30;99.90;;;;;;6191906;22;20033;31
2021/11/30 14:08:54;;;;;;;16.75;2.47;;;7.40;99.90;;;;;;6243421;22;20059;-81
2021/11/30 14:11:44;;;;;;;11.63;2.25;;;6.90;99.90;;;;;;6295340;22;20518;-81
2021/11/30 14:14:56;;;;;;;19.35;2.30;;;7.40;99.90;;;;;;6272767;22;20320;-81
2021/11/30 14:18:09;;;;;;;16.90;2.10;;;7.40;99.90;;;;;;6184201;23;20356;-81
2021/11/30 14:20:58;;;;;;;20.05;2.65;;;7.40;99.90;;;;;;6176423;23;20027;-82
2021/11/30 14:24:19;;;;;;;11.02;1.73;;;7.70;99.90;;;;;;6090932;23;20101;-81
2021/11/30 14:26:49;;;;;;;19.67;2.97;;;7.50;99.90;;;;;;6044047;23;20152;-81
2021/11/30 14:29:24;;;;;;;19.45;2.30;;;7.50;99.90;;;;;;6041852;23;20014;-83
2021/11/30 14:31:59;;;;;;;11.13;1.85;;;7.50;99.90;;;;;;6043138;23;20415;-78
2021/11/30 14:34:38;;;;;;;21.52;2.22;;;7.00;99.90;;;;;;6066930;23;20077;-78
2021/11/30 14:37:20;;;;;;;23.58;2.55;;;7.40;99.90;;;;;;6043011;23;20197;-78
2021/11/30 14:39:47;;;;;;;17.38;2.42;;;7.50;99.90;;;;;;6067598;23;20057;-79
2021/11/30 14:42:31;;;;;;;10.85;1.63;;;7.50;99.90;;;;;;6091092;23;20754;-80
2021/11/30 14:45:21;;;;;;;17.98;1.70;;;7.40;99.90;;;;;;6067274;23;20291;-79
2021/11/30 14:47:53;;;;;;;16.48;2.00;;;7.40;99.90;;;;;;6044405;23;20021;-82
2021/11/30 14:50:22;;;;;;;13.50;1.95;;;7.40;99.90;;;;;;6077484;23;20363;-81
2021/11/30 14:52:52;;;;;;;18.58;2.42;;;7.30;99.90;;;;;;6153466;23;20020;-81
2021/11/30 14:55:32;;;;;;;19.63;2.25;;;7.30;99.90;;;;;;6155236;23;20442;-80
2021/11/30 14:58:24;;;;;;;18.48;2.83;;;7.30;99.90;;;;;;6128773;23;20013;-81
2021/11/30 15:01:19;;;;;;;18.50;3.28;;;7.30;99.90;;;;;;6187034;22;20070;-82
2021/11/30 15:03:47;;;;;;;16.40;2.10;;;7.20;99.90;;;;;;6245302;22;20065;-78
2021/11/30 15:06:17;;;;;;;15.60;2.03;;;7.50;99.90;;;;;;6294801;22;20380;-80
2021/11/30 15:08:45;;;;;;;24.15;3.22;;;7.90;99.90;;;;;;6301356;22;20072;-80
2021/11/30 15:11:12;;;;;;;18.58;2.60;;;7.50;99.90;;;;;;6300302;22;20090;-80
2021/11/30 15:13:52;;;;;;;21.27;4.80;;;7.10;99.90;;;;;;6273753;22;20080;-81
2021/11/30 15:16:40;;;;;;;27.67;2.35;;;7.10;99.90;;;;;;6302077;22;20015;-79
2021/11/30 15:23:10;;;;;;;20.50;2.72;;;7.00;99.90;;;;;;6030512;23;20023;-81
2021/11/30 15:29:19;;;;;;;16.17;2.72;;;6.40;99.90;;;;;;6007526;23;20090;-80
2021/11/30 15:31:46;;;;;;;25.77;3.13;;;7.20;99.90;;;;;;5981040;23;20049;-83
2021/11/30 15:34:12;;;;;;;23.77;3.50;;;6.80;99.90;;;;;;5956775;23;20023;-82
2021/11/30 15:36:39;;;;;;;29.15;3.40;;;6.80;99.90;;;;;;5981353;23;20020;-80
2021/11/30 15:39:07;;;;;;;23.58;4.47;;;6.80;99.90;;;;;;5979723;23;20024;-81
2021/11/30 15:41:34;;;;;;;24.40;2.90;;;6.70;99.90;;;;;;5955973;23;20023;-78
2021/11/30 15:43:59;;;;;;;25.45;3.42;;;6.70;99.90;;;;;;5980548;23;20047;-79
2021/11/30 15:46:25;;;;;;;25.60;3.42;;;6.70;99.90;;;;;;5980907;23;20317;-79
2021/11/30 15:48:51;;;;;;;22.23;3.53;;;6.70;99.90;;;;;;5981795;23;20012;-80
2021/11/30 15:51:25;;;;;;;23.42;3.50;;;6.90;99.90;;;;;;5958361;23;20039;-79
2021/11/30 15:53:52;;;;;;;24.42;3.17;;;6.60;99.90;;;;;;5980960;23;20023;-79
2021/11/30 15:59:03;;;;;;;28.65;4.07;;;6.70;99.90;;;;;;6166740;23;20031;-78
2021/11/30 16:01:28;;;;;;;30.55;3.88;;;6.50;99.90;;;;;;6239023;23;20139;-78
2021/11/30 16:03:54;;;;;;;31.83;4.38;;;6.60;99.90;;;;;;6298950;22;20027;-78
2021/11/30 16:06:20;;;;;;;27.30;3.75;;;6.50;99.90;;;;;;6302031;22;20017;-81
2021/11/30 16:08:47;;;;;;;34.92;3.28;;;6.50;99.90;;;;;;6299083;22;20021;-81
2021/11/30 16:11:13;;;;;;;31.88;4.15;;;6.50;99.90;;;;;;6302724;22;20015;-80
2021/11/30 16:13:39;;;;;;;30.63;3.33;;;6.30;99.90;;;;;;6276846;22;20497;-81
2021/11/30 16:16:05;;;;;;;27.98;3.85;;;6.30;99.90;;;;;;6303610;22;20137;-80
2021/11/30 16:18:30;;;;;;;34.90;3.60;;;6.20;99.90;;;;;;6277168;22;20325;-81
2021/11/30 16:20:56;;;;;;;31.65;3.80;;;6.20;99.90;;;;;;6276417;22;20760;-80
2021/11/30 16:23:22;;;;;;;29.83;4.10;;;6.10;99.90;;;;;;6304496;22;20019;-81
2021/11/30 16:25:50;;;;;;;30.85;4.38;;;6.20;99.90;;;;;;6303219;22;20049;-82
2021/11/30 16:28:16;;;;;;;26.60;3.78;;;6.30;99.90;;;;;;6303809;22;20010;-82
2021/11/30 16:30:41;;;;;;;34.75;4.25;;;6.20;99.90;;;;;;6302327;22;20086;-81
2021/11/30 16:33:07;;;;;;;25.42;3.95;;;6.20;99.90;;;;;;6275231;22;20019;-81
2021/11/30 16:35:33;;;;;;;25.90;3.92;;;6.30;99.90;;;;;;6276486;22;20023;-81
2021/11/30 16:37:59;;;;;;;28.95;3.53;;;6.30;99.90;;;;;;6274056;22;20054;-81
2021/11/30 16:40:28;;;;;;;22.35;2.95;;;6.60;99.90;;;;;;6303522;22;20349;-80
2021/11/30 16:42:54;;;;;;;27.88;3.53;;;6.40;99.90;;;;;;6274468;22;20046;-81
2021/11/30 16:45:43;;;;;;;27.30;3.45;;;7.00;99.90;;;;;;6275171;22;20327;-84
2021/11/30 16:48:17;;;;;;;19.98;2.22;;;6.60;99.90;;;;;;6276768;22;20118;-86
2021/11/30 16:50:46;;;;;;;16.48;2.70;;;6.60;99.90;;;;;;6278761;22;20026;-84
2021/11/30 16:53:12;;;;;;;19.75;2.85;;;6.70;99.90;;;;;;6276498;22;20046;-79
2021/11/30 16:55:53;;;;;;;23.27;3.03;;;7.80;99.90;;;;;;6275940;22;20430;-85
2021/11/30 16:58:53;;;;;;;23.13;3.10;;;7.40;99.90;;;;;;6304697;22;20014;-82
2021/11/30 17:07:53;;;;;;;16.85;2.47;;;6.90;99.90;;;;;;6290967;22;20030;-81
2021/11/30 17:10:38;;;;;;;28.15;3.38;;;6.30;99.90;;;;;;6302417;22;20400;-80
2021/11/30 17:14:07;;;;;;;;;;;;;;;;;;;;;
2021/11/30 17:20:37;;;;;;;23.27;2.70;;;6.80;99.90;;;;;;6066133;23;20454;-81
2021/11/30 17:23:05;;;;;;;25.40;2.83;;;7.20;99.90;;;;;;6067341;23;20050;-81
2021/11/30 17:25:31;;;;;;;22.55;2.80;;;6.80;99.90;;;;;;6066855;23;20022;-80
2021/11/30 17:27:57;;;;;;;27.25;4.43;;;6.70;99.90;;;;;;6066534;23;20380;-80
2021/11/30 17:30:26;;;;;;;21.92;2.92;;;6.70;99.90;;;;;;6068190;23;20014;-81
2021/11/30 17:32:52;;;;;;;20.65;2.72;;;6.70;99.90;;;;;;6066157;23;20014;-80
2021/11/30 17:35:19;;;;;;;20.98;2.40;;;6.70;99.90;;;;;;6068007;23;20033;-80
2021/11/30 17:37:45;;;;;;;17.88;2.67;;;6.70;99.90;;;;;;6066904;23;20018;-81
2021/11/30 17:40:13;;;;;;;18.98;3.00;;;6.70;99.90;;;;;;6066809;23;20018;-81
2021/11/30 17:42:40;;;;;;;26.67;3.65;;;6.70;99.90;;;;;;6092526;23;20475;-81
2021/11/30 17:45:15;;;;;;;17.02;3.83;;;6.70;99.90;;;;;;6068769;23;20015;-81
2021/11/30 17:47:42;;;;;;;22.00;3.42;;;6.70;99.90;;;;;;6092369;23;20022;-82
2021/11/30 17:50:10;;;;;;;17.48;2.72;;;6.60;99.90;;;;;;6087595;23;20014;-81
2021/11/30 17:52:37;;;;;;;17.48;2.28;;;6.60;99.90;;;;;;6139199;23;20088;-81
2021/11/30 17:55:10;;;;;;;17.80;2.70;;;6.60;99.90;;;;;;6161150;22;20017;-82
2021/11/30 17:57:39;;;;;;;14.05;1.83;;;6.50;99.90;;;;;;6276462;22;20015;-82
2021/11/30 18:00:11;;;;;;;21.30;6.70;;;6.40;99.90;;;;;;6303354;22;20095;-78
2021/11/30 18:02:39;;;;;;;18.83;3.75;;;6.50;99.90;;;;;;6277175;22;20064;-81
2021/11/30 18:05:08;;;;;;;17.40;2.47;;;6.50;99.90;;;;;;6302204;22;20435;-81
2021/11/30 18:07:34;;;;;;;16.02;2.40;;;6.50;99.90;;;;;;6275273;22;20050;-80
2021/11/30 18:09:59;;;;;;;18.92;3.08;;;6.50;99.90;;;;;;6251517;22;20015;-82
2021/11/30 18:12:25;;;;;;;18.90;3.38;;;6.50;99.90;;;;;;6301710;22;20011;-81
2021/11/30 18:14:54;;;;;;;16.13;2.67;;;6.50;99.90;;;;;;6301644;22;20050;-81
2021/11/30 18:17:20;;;;;;;19.90;3.25;;;6.40;99.90;;;;;;6276889;22;20014;-81
2021/11/30 18:19:46;;;;;;;17.42;3.10;;;6.40;99.90;;;;;;6302444;22;20327;-80
2021/11/30 18:22:11;;;;;;;23.80;3.28;;;6.40;99.90;;;;;;6300549;22;20015;-80
2021/11/30 18:24:39;;;;;;;24.83;2.80;;;6.40;99.90;;;;;;6301230;22;20095;-80
2021/11/30 18:27:08;;;;;;;21.10;2.83;;;6.40;99.90;;;;;;6302020;22;20396;-83
2021/11/30 18:29:34;;;;;;;12.82;2.75;;;6.40;99.90;;;;;;6277404;22;20397;-81
2021/11/30 18:32:17;;;;;;;14.30;2.95;;;6.40;99.90;;;;;;6301779;22;20086;-85
2021/11/30 18:34:46;;;;;;;19.10;2.92;;;6.40;99.90;;;;;;6274708;22;20034;-78
2021/11/30 18:37:12;;;;;;;18.42;3.35;;;6.40;99.90;;;;;;6248419;22;20451;-78
2021/11/30 18:39:39;;;;;;;21.70;3.70;;;6.40;99.90;;;;;;6273326;22;20022;-79
2021/11/30 18:42:06;;;;;;;22.08;3.67;;;6.40;99.90;;;;;;6274516;22;20011;-78
2021/11/30 18:44:32;;;;;;;27.02;4.07;;;6.40;99.90;;;;;;6274787;22;20015;-79
2021/11/30 18:46:57;;;;;;;24.40;3.92;;;6.40;99.90;;;;;;6249297;22;20023;-80
2021/11/30 18:49:24;;;;;;;27.45;5.32;;;6.40;99.90;;;;;;6274486;22;20111;-77
2021/11/30 18:51:50;;;;;;;22.60;3.90;;;6.40;99.90;;;;;;6296774;22;20558;-79
2021/11/30 18:54:16;;;;;;;19.60;3.78;;;6.40;99.90;;;;;;6274753;22;20019;-79
2021/11/30 18:56:42;;;;;;;27.33;3.75;;;6.40;99.90;;;;;;6274826;22;20019;-80
2021/11/30 18:59:09;;;;;;;15.27;3.45;;;6.40;99.90;;;;;;6276100;22;20031;-79
2021/11/30 19:01:35;;;;;;;18.98;3.55;;;6.40;99.90;;;;;;6303177;22;20015;-79
2021/11/30 19:04:02;;;;;;;20.13;3.60;;;6.40;99.90;;;;;;6274723;22;20019;-81
2021/11/30 19:06:30;;;;;;;21.58;4.18;;;6.30;99.90;;;;;;6273986;22;20107;-84
2021/11/30 19:08:58;;;;;;;27.90;3.67;;;6.30;99.90;;;;;;6272815;22;20055;-82
2021/11/30 19:11:23;;;;;;;17.42;3.20;;;6.30;99.90;;;;;;6278216;22;20007;-83
2021/11/30 19:13:49;;;;;;;13.18;3.50;;;6.90;99.90;;;;;;6304738;22;20033;-82
2021/11/30 19:16:15;;;;;;;14.88;4.00;;;6.20;99.90;;;;;;6304820;22;20019;-83
2021/11/30 19:18:41;;;;;;;22.08;4.57;;;6.10;99.90;;;;;;6304953;22;20033;-83
2021/11/30 19:21:30;;;;;;;19.75;4.88;;;6.60;99.90;;;;;;6278149;22;20049;-84
2021/11/30 19:23:58;;;;;;;15.38;5.15;;;6.00;99.90;;;;;;6161536;23;20090;-85
2021/11/30 19:26:28;;;;;;;31.50;5.85;;;6.10;99.90;;;;;;6163141;23;20032;-85
2021/11/30 19:28:56;;;;;;;22.00;5.47;;;6.00;99.90;;;;;;6186824;23;20051;-85
2021/11/30 19:31:22;;;;;;;21.48;4.22;;;6.00;99.90;;;;;;6163417;23;20012;-85
2021/11/30 19:33:51;;;;;;;22.55;4.60;;;6.50;99.90;;;;;;6161729;23;20027;-82
2021/11/30 19:36:17;;;;;;;23.00;5.25;;;6.00;99.90;;;;;;6185439;23;20436;-86
2021/11/30 19:38:42;;;;;;;20.52;4.97;;;6.00;99.90;;;;;;6161162;23;20013;-82
2021/11/30 19:41:08;;;;;;;20.52;5.13;;;5.90;99.90;;;;;;6162164;23;20013;-83
2021/11/30 19:43:38;;;;;;;17.42;4.53;;;6.30;99.90;;;;;;6212398;23;20020;-82
2021/11/30 19:46:05;;;;;;;28.23;5.38;;;6.00;99.90;;;;;;6162984;23;20432;-83
2021/11/30 19:48:37;;;;;;;25.20;4.72;;;6.50;99.90;;;;;;6212914;23;20641;-82
2021/11/30 19:51:06;;;;;;;17.90;4.72;;;6.00;99.90;;;;;;6163150;23;20114;-83
2021/11/30 19:53:32;;;;;;;27.23;5.78;;;6.10;99.90;;;;;;6211743;23;20021;-82
2021/11/30 19:55:58;;;;;;;26.42;6.30;;;6.00;99.90;;;;;;6186276;23;20099;-82
2021/11/30 19:58:24;;;;;;;26.90;6.70;;;6.10;99.90;;;;;;6185562;23;20405;-83
2021/11/30 20:06:02;;;;;;;24.53;7.50;;;6.80;99.90;;;;;;6304135;22;20307;-84
2021/11/30 20:08:28;;;;;;;19.95;7.43;;;6.70;99.90;;;;;;6277960;22;20098;-82
2021/11/30 20:10:54;;;;;;;20.17;6.57;;;6.10;99.90;;;;;;6278216;22;20098;-83
2021/11/30 20:13:20;;;;;;;24.73;7.43;;;6.20;99.90;;;;;;6303464;22;20015;-84
2021/11/30 20:15:55;;;;;;;32.80;7.47;;;6.20;99.90;;;;;;6303880;22;20077;-84
2021/11/30 20:18:21;;;;;;;25.73;7.80;;;6.20;99.90;;;;;;6303379;22;20300;-83
2021/11/30 20:20:49;;;;;;;27.13;8.35;;;6.30;99.90;;;;;;6277856;22;20792;-83
2021/11/30 20:23:18;;;;;;;27.13;8.32;;;7.00;99.90;;;;;;6302493;22;20019;-84